Hauptseite
METAR-TAF:

METAR-TAF

Flughäfen :

Gloucester, England

Breite: 51-54N, Länge: 002-10W, Höhe: 29 m

Beobachtung

Neuester Wetterbericht von vor 23 Minuten, um 08:50 UTC
Wind 5 kt aus West/Südwest, variierte zwischen Süd/Südwest und West
Temperatur 11°C
Luftfeuchtigkeit 76%
Luftdruck 1016 hPa
Sichtweite 10 km oder mehr
Durchbrochene Bewölkung in der Höhe von 2000 ft

METAR: EGBJ 230850Z 24005KT 200V270 9999 BKN020 11/07 Q1016

Zeit: 10:13 (09:13 UTC)

Prognose

Neuester Wetterbericht von vor 1 Stunde und 17 Minuten, um 07:56 UTC
Gültige Prognose vom 23 um 09 UTC bis 23 um 18 UTC
Wind 8 kt aus Südwest
Sichtweite 10 km oder mehr
Aufgelockert bewölkt in der Höhe von 3000 ft

TAF: EGBJ 230756Z 2309/2318 22008KT 9999 SCT030

Wetterbeobachtungen und Prognosen von mehr als 4000 Flughäfen (METAR und TAF Bericht).

Die verfügbaren Stationen werden durch gelbe und rote Markierungen auf der Karte dargestellt.

Führen Sie die Maus auf sie, um den Namen der Station zu sehen.

Darauf klicken, um die Beobachtung von Wetterbeobachtungen und Prognosen zu sehen.

Um die Karte zu ändern : klicken Sie auf den grünen Tasten mit einem schwarzen Kreuz Zum Vergrößern, auf den grünen Button mit einem Gedankenstrich zu verkleinern, oder auf die grünen Pfeile für benachbarte Karten.


METAR-TAF: